sensor_id;sensor_type;location;lat;lon;timestamp;temperature;humidity
23556;DHT22;11956;53.184;8.578;2022-09-17T00:02:22;11.20;99.90
23556;DHT22;11956;53.184;8.578;2022-09-17T00:05:25;11.20;99.90
23556;DHT22;11956;53.184;8.578;2022-09-17T00:08:26;11.10;99.90
23556;DHT22;11956;53.184;8.578;2022-09-17T00:11:29;11.10;99.90
23556;DHT22;11956;53.184;8.578;2022-09-17T00:14:31;11.00;99.90
23556;DHT22;11956;53.184;8.578;2022-09-17T00:17:32;11.10;99.90
23556;DHT22;11956;53.184;8.578;2022-09-17T00:20:38;11.10;99.90
23556;DHT22;11956;53.184;8.578;2022-09-17T00:23:40;11.10;99.90
23556;DHT22;11956;53.184;8.578;2022-09-17T00:26:41;11.10;99.90
23556;DHT22;11956;53.184;8.578;2022-09-17T00:29:42;11.10;99.90
23556;DHT22;11956;53.184;8.578;2022-09-17T00:32:43;11.20;99.90
23556;DHT22;11956;53.184;8.578;2022-09-17T00:35:44;11.10;99.90
23556;DHT22;11956;53.184;8.578;2022-09-17T00:38:55;11.10;99.90
23556;DHT22;11956;53.184;8.578;2022-09-17T00:41:57;11.00;99.90
23556;DHT22;11956;53.184;8.578;2022-09-17T00:44:58;11.00;99.90
23556;DHT22;11956;53.184;8.578;2022-09-17T00:48:02;10.90;99.90
23556;DHT22;11956;53.184;8.578;2022-09-17T00:51:08;10.90;99.90
23556;DHT22;11956;53.184;8.578;2022-09-17T00:54:11;10.80;99.90
23556;DHT22;11956;53.184;8.578;2022-09-17T00:57:12;10.80;99.90
23556;DHT22;11956;53.184;8.578;2022-09-17T01:00:15;10.80;99.90
23556;DHT22;11956;53.184;8.578;2022-09-17T01:03:16;10.80;99.90
23556;DHT22;11956;53.184;8.578;2022-09-17T01:29:37;11.10;99.90
23556;DHT22;11956;53.184;8.578;2022-09-17T01:36:12;11.10;99.90
23556;DHT22;11956;53.184;8.578;2022-09-17T01:43:18;11.10;99.90
23556;DHT22;11956;53.184;8.578;2022-09-17T01:46:45;11.10;99.90
23556;DHT22;11956;53.184;8.578;2022-09-17T01:50:00;11.20;99.90
23556;DHT22;11956;53.184;8.578;2022-09-17T01:53:06;11.20;99.90
23556;DHT22;11956;53.184;8.578;2022-09-17T01:56:12;11.20;99.90
23556;DHT22;11956;53.184;8.578;2022-09-17T01:59:21;11.20;99.90
23556;DHT22;11956;53.184;8.578;2022-09-17T02:02:31;11.20;99.90
23556;DHT22;11956;53.184;8.578;2022-09-17T02:05:58;11.20;99.90
23556;DHT22;11956;53.184;8.578;2022-09-17T02:09:11;11.20;99.90
23556;DHT22;11956;53.184;8.578;2022-09-17T02:12:37;11.20;99.90
23556;DHT22;11956;53.184;8.578;2022-09-17T02:15:44;11.20;99.90
23556;DHT22;11956;53.184;8.578;2022-09-17T02:29:11;11.10;99.90
23556;DHT22;11956;53.184;8.578;2022-09-17T02:32:33;11.10;99.90
23556;DHT22;11956;53.184;8.578;2022-09-17T02:35:34;11.10;99.90
23556;DHT22;11956;53.184;8.578;2022-09-17T02:38:42;11.10;99.90
23556;DHT22;11956;53.184;8.578;2022-09-17T02:41:56;11.10;99.90
23556;DHT22;11956;53.184;8.578;2022-09-17T02:45:11;11.10;99.90
23556;DHT22;11956;53.184;8.578;2022-09-17T02:55:33;11.20;99.90
23556;DHT22;11956;53.184;8.578;2022-09-17T03:02:25;11.20;99.90
23556;DHT22;11956;53.184;8.578;2022-09-17T03:05:29;11.10;99.90
23556;DHT22;11956;53.184;8.578;2022-09-17T03:08:40;11.10;99.90
23556;DHT22;11956;53.184;8.578;2022-09-17T03:11:41;11.10;99.90
23556;DHT22;11956;53.184;8.578;2022-09-17T03:14:42;11.10;99.90
23556;DHT22;11956;53.184;8.578;2022-09-17T03:17:43;11.10;99.90
23556;DHT22;11956;53.184;8.578;2022-09-17T03:20:44;11.10;99.90
23556;DHT22;11956;53.184;8.578;2022-09-17T03:23:46;11.10;99.90
23556;DHT22;11956;53.184;8.578;2022-09-17T03:26:46;11.10;99.90
23556;DHT22;11956;53.184;8.578;2022-09-17T03:29:48;11.00;99.90
23556;DHT22;11956;53.184;8.578;2022-09-17T03:32:49;11.00;99.90
23556;DHT22;11956;53.184;8.578;2022-09-17T03:35:50;10.90;99.90
23556;DHT22;11956;53.184;8.578;2022-09-17T03:38:55;10.90;99.90
23556;DHT22;11956;53.184;8.578;2022-09-17T03:41:56;10.90;99.90
23556;DHT22;11956;53.184;8.578;2022-09-17T03:44:58;10.80;99.90
23556;DHT22;11956;53.184;8.578;2022-09-17T03:47:59;10.80;99.90
23556;DHT22;11956;53.184;8.578;2022-09-17T03:51:00;10.70;99.90
23556;DHT22;11956;53.184;8.578;2022-09-17T03:54:02;10.60;99.90
23556;DHT22;11956;53.184;8.578;2022-09-17T03:57:03;10.60;99.90
23556;DHT22;11956;53.184;8.578;2022-09-17T04:00:04;10.60;99.90
23556;DHT22;11956;53.184;8.578;2022-09-17T04:03:12;10.60;99.90
23556;DHT22;11956;53.184;8.578;2022-09-17T04:06:13;10.60;99.90
23556;DHT22;11956;53.184;8.578;2022-09-17T04:09:14;10.60;99.90
23556;DHT22;11956;53.184;8.578;2022-09-17T04:12:15;10.60;99.90
23556;DHT22;11956;53.184;8.578;2022-09-17T04:15:16;10.60;99.90
23556;DHT22;11956;53.184;8.578;2022-09-17T04:18:17;10.50;99.90
23556;DHT22;11956;53.184;8.578;2022-09-17T04:21:18;10.40;99.90
23556;DHT22;11956;53.184;8.578;2022-09-17T04:24:18;10.40;99.90
23556;DHT22;11956;53.184;8.578;2022-09-17T04:27:19;10.40;99.90
23556;DHT22;11956;53.184;8.578;2022-09-17T04:30:20;10.40;99.90
23556;DHT22;11956;53.184;8.578;2022-09-17T04:33:22;10.40;99.90
23556;DHT22;11956;53.184;8.578;2022-09-17T04:36:24;10.50;99.90
23556;DHT22;11956;53.184;8.578;2022-09-17T04:39:25;10.50;99.90
23556;DHT22;11956;53.184;8.578;2022-09-17T04:42:26;10.50;99.90
23556;DHT22;11956;53.184;8.578;2022-09-17T04:45:27;10.50;99.90
23556;DHT22;11956;53.184;8.578;2022-09-17T04:48:29;10.50;99.90
23556;DHT22;11956;53.184;8.578;2022-09-17T04:51:30;10.50;99.90
23556;DHT22;11956;53.184;8.578;2022-09-17T04:54:30;10.50;99.90
23556;DHT22;11956;53.184;8.578;2022-09-17T04:57:31;10.50;99.90
23556;DHT22;11956;53.184;8.578;2022-09-17T05:00:32;10.50;99.90
23556;DHT22;11956;53.184;8.578;2022-09-17T05:03:34;10.50;99.90
23556;DHT22;11956;53.184;8.578;2022-09-17T05:06:35;10.50;99.90
23556;DHT22;11956;53.184;8.578;2022-09-17T05:09:36;10.50;99.90
23556;DHT22;11956;53.184;8.578;2022-09-17T05:12:37;10.50;99.90
23556;DHT22;11956;53.184;8.578;2022-09-17T05:15:38;10.50;99.90
23556;DHT22;11956;53.184;8.578;2022-09-17T05:18:39;10.40;99.90
23556;DHT22;11956;53.184;8.578;2022-09-17T05:21:40;10.40;99.90
23556;DHT22;11956;53.184;8.578;2022-09-17T05:24:40;10.40;99.90
23556;DHT22;11956;53.184;8.578;2022-09-17T05:27:42;10.50;99.90
23556;DHT22;11956;53.184;8.578;2022-09-17T05:30:43;10.50;99.90
23556;DHT22;11956;53.184;8.578;2022-09-17T05:33:43;10.50;99.90
23556;DHT22;11956;53.184;8.578;2022-09-17T05:36:44;10.50;99.90
23556;DHT22;11956;53.184;8.578;2022-09-17T05:39:45;10.50;99.90
23556;DHT22;11956;53.184;8.578;2022-09-17T05:42:46;10.50;99.90
23556;DHT22;11956;53.184;8.578;2022-09-17T05:45:47;10.50;99.90
23556;DHT22;11956;53.184;8.578;2022-09-17T05:48:48;10.50;99.90
23556;DHT22;11956;53.184;8.578;2022-09-17T05:51:49;10.50;99.90
23556;DHT22;11956;53.184;8.578;2022-09-17T05:54:51;10.50;99.90
23556;DHT22;11956;53.184;8.578;2022-09-17T05:57:52;10.60;99.90
23556;DHT22;11956;53.184;8.578;2022-09-17T06:00:53;10.80;99.90
23556;DHT22;11956;53.184;8.578;2022-09-17T06:03:53;10.80;99.90
23556;DHT22;11956;53.184;8.578;2022-09-17T06:06:54;10.90;99.90
23556;DHT22;11956;53.184;8.578;2022-09-17T06:09:55;11.20;99.90
23556;DHT22;11956;53.184;8.578;2022-09-17T06:12:57;11.80;99.90
23556;DHT22;11956;53.184;8.578;2022-09-17T06:16:00;12.80;99.90
23556;DHT22;11956;53.184;8.578;2022-09-17T06:19:01;14.00;99.90
23556;DHT22;11956;53.184;8.578;2022-09-17T06:22:03;14.70;99.90
23556;DHT22;11956;53.184;8.578;2022-09-17T06:25:05;15.00;99.90
23556;DHT22;11956;53.184;8.578;2022-09-17T06:28:07;15.30;99.90
23556;DHT22;11956;53.184;8.578;2022-09-17T06:31:09;15.90;99.90
23556;DHT22;11956;53.184;8.578;2022-09-17T06:34:10;17.00;99.90
23556;DHT22;11956;53.184;8.578;2022-09-17T06:37:11;17.60;99.90
23556;DHT22;11956;53.184;8.578;2022-09-17T06:40:12;17.90;99.90
23556;DHT22;11956;53.184;8.578;2022-09-17T06:43:13;18.40;99.90
23556;DHT22;11956;53.184;8.578;2022-09-17T06:46:14;18.50;99.90
23556;DHT22;11956;53.184;8.578;2022-09-17T06:49:15;18.70;99.90
23556;DHT22;11956;53.184;8.578;2022-09-17T06:52:17;19.40;99.90
23556;DHT22;11956;53.184;8.578;2022-09-17T06:55:18;19.50;99.90
23556;DHT22;11956;53.184;8.578;2022-09-17T06:58:19;20.10;99.90
23556;DHT22;11956;53.184;8.578;2022-09-17T07:01:20;20.40;99.90
23556;DHT22;11956;53.184;8.578;2022-09-17T07:04:21;20.50;99.90
23556;DHT22;11956;53.184;8.578;2022-09-17T07:07:22;20.60;99.90
23556;DHT22;11956;53.184;8.578;2022-09-17T07:10:23;20.80;99.90
23556;DHT22;11956;53.184;8.578;2022-09-17T07:13:24;20.30;99.90
23556;DHT22;11956;53.184;8.578;2022-09-17T07:16:26;19.50;99.90
23556;DHT22;11956;53.184;8.578;2022-09-17T07:19:27;18.30;99.90
23556;DHT22;11956;53.184;8.578;2022-09-17T07:22:28;19.60;99.90
23556;DHT22;11956;53.184;8.578;2022-09-17T07:25:29;20.50;99.90
23556;DHT22;11956;53.184;8.578;2022-09-17T07:28:30;20.60;99.90
23556;DHT22;11956;53.184;8.578;2022-09-17T07:31:31;21.00;99.90
23556;DHT22;11956;53.184;8.578;2022-09-17T07:34:32;21.60;99.20
23556;DHT22;11956;53.184;8.578;2022-09-17T07:37:33;22.20;97.80
23556;DHT22;11956;53.184;8.578;2022-09-17T07:40:33;21.70;98.00
23556;DHT22;11956;53.184;8.578;2022-09-17T07:43:35;22.50;97.30
23556;DHT22;11956;53.184;8.578;2022-09-17T07:46:35;22.90;96.00
23556;DHT22;11956;53.184;8.578;2022-09-17T07:49:36;23.00;95.40
23556;DHT22;11956;53.184;8.578;2022-09-17T07:52:37;22.30;96.30
23556;DHT22;11956;53.184;8.578;2022-09-17T07:55:39;22.30;96.70
23556;DHT22;11956;53.184;8.578;2022-09-17T07:58:39;22.70;96.40
23556;DHT22;11956;53.184;8.578;2022-09-17T08:01:41;22.70;96.10
23556;DHT22;11956;53.184;8.578;2022-09-17T08:04:42;22.50;96.10
23556;DHT22;11956;53.184;8.578;2022-09-17T08:07:43;23.00;94.80
23556;DHT22;11956;53.184;8.578;2022-09-17T08:10:44;22.70;94.70
23556;DHT22;11956;53.184;8.578;2022-09-17T08:13:50;20.50;97.80
23556;DHT22;11956;53.184;8.578;2022-09-17T08:16:51;18.00;99.90
23556;DHT22;11956;53.184;8.578;2022-09-17T08:19:52;16.50;99.90
23556;DHT22;11956;53.184;8.578;2022-09-17T08:22:58;15.30;99.90
23556;DHT22;11956;53.184;8.578;2022-09-17T08:26:00;14.80;99.90
23556;DHT22;11956;53.184;8.578;2022-09-17T08:29:01;15.40;99.90
23556;DHT22;11956;53.184;8.578;2022-09-17T08:32:02;17.40;99.90
23556;DHT22;11956;53.184;8.578;2022-09-17T08:35:03;18.20;99.90
23556;DHT22;11956;53.184;8.578;2022-09-17T08:38:05;17.30;99.90
23556;DHT22;11956;53.184;8.578;2022-09-17T08:44:31;17.10;99.90
23556;DHT22;11956;53.184;8.578;2022-09-17T08:47:41;17.60;99.90
23556;DHT22;11956;53.184;8.578;2022-09-17T08:50:42;17.00;99.90
23556;DHT22;11956;53.184;8.578;2022-09-17T08:54:09;16.30;99.90
23556;DHT22;11956;53.184;8.578;2022-09-17T09:00:52;14.80;99.90
23556;DHT22;11956;53.184;8.578;2022-09-17T09:04:08;14.10;99.90
23556;DHT22;11956;53.184;8.578;2022-09-17T09:07:17;13.60;99.90
23556;DHT22;11956;53.184;8.578;2022-09-17T09:10:26;13.20;99.90
23556;DHT22;11956;53.184;8.578;2022-09-17T09:13:43;12.60;99.90
23556;DHT22;11956;53.184;8.578;2022-09-17T09:16:47;12.30;99.90
23556;DHT22;11956;53.184;8.578;2022-09-17T09:19:49;11.90;99.90
23556;DHT22;11956;53.184;8.578;2022-09-17T09:22:52;11.70;99.90
23556;DHT22;11956;53.184;8.578;2022-09-17T09:26:00;11.50;99.90
23556;DHT22;11956;53.184;8.578;2022-09-17T09:29:19;11.20;99.90
23556;DHT22;11956;53.184;8.578;2022-09-17T09:36:09;10.90;99.90
23556;DHT22;11956;53.184;8.578;2022-09-17T09:39:15;11.10;99.90
23556;DHT22;11956;53.184;8.578;2022-09-17T09:42:34;11.20;99.90
23556;DHT22;11956;53.184;8.578;2022-09-17T09:49:43;11.20;99.90
23556;DHT22;11956;53.184;8.578;2022-09-17T09:57:11;11.20;99.90
23556;DHT22;11956;53.184;8.578;2022-09-17T10:03:31;11.00;99.90
23556;DHT22;11956;53.184;8.578;2022-09-17T10:06:35;10.90;99.90
23556;DHT22;11956;53.184;8.578;2022-09-17T10:09:38;10.80;99.90
23556;DHT22;11956;53.184;8.578;2022-09-17T10:12:44;10.90;99.90
23556;DHT22;11956;53.184;8.578;2022-09-17T10:15:45;10.90;99.90
23556;DHT22;11956;53.184;8.578;2022-09-17T10:18:47;10.90;99.90
23556;DHT22;11956;53.184;8.578;2022-09-17T10:21:50;11.00;99.90
23556;DHT22;11956;53.184;8.578;2022-09-17T10:24:53;11.20;99.90
23556;DHT22;11956;53.184;8.578;2022-09-17T10:27:57;11.30;99.90
23556;DHT22;11956;53.184;8.578;2022-09-17T10:31:04;11.30;99.90
23556;DHT22;11956;53.184;8.578;2022-09-17T10:34:18;11.10;99.90
23556;DHT22;11956;53.184;8.578;2022-09-17T10:40:43;10.70;99.90
23556;DHT22;11956;53.184;8.578;2022-09-17T10:43:44;10.80;99.90
23556;DHT22;11956;53.184;8.578;2022-09-17T10:46:45;10.70;99.90
23556;DHT22;11956;53.184;8.578;2022-09-17T10:49:57;10.70;99.90
23556;DHT22;11956;53.184;8.578;2022-09-17T10:53:03;10.80;99.90
23556;DHT22;11956;53.184;8.578;2022-09-17T11:09:51;10.80;99.90
23556;DHT22;11956;53.184;8.578;2022-09-17T11:13:01;10.80;99.90
23556;DHT22;11956;53.184;8.578;2022-09-17T11:30:22;10.70;99.90
23556;DHT22;11956;53.184;8.578;2022-09-17T11:33:37;10.80;99.90
23556;DHT22;11956;53.184;8.578;2022-09-17T11:40:19;10.80;99.90
23556;DHT22;11956;53.184;8.578;2022-09-17T11:43:33;10.70;99.90
23556;DHT22;11956;53.184;8.578;2022-09-17T11:46:49;10.80;99.90
23556;DHT22;11956;53.184;8.578;2022-09-17T11:50:03;11.10;99.90
23556;DHT22;11956;53.184;8.578;2022-09-17T11:53:22;11.30;99.90
23556;DHT22;11956;53.184;8.578;2022-09-17T11:56:42;11.50;99.90
23556;DHT22;11956;53.184;8.578;2022-09-17T11:59:51;11.60;99.90
23556;DHT22;11956;53.184;8.578;2022-09-17T12:03:09;11.60;99.90
23556;DHT22;11956;53.184;8.578;2022-09-17T12:06:21;11.80;99.90
23556;DHT22;11956;53.184;8.578;2022-09-17T12:09:29;12.10;99.90
23556;DHT22;11956;53.184;8.578;2022-09-17T12:12:33;12.40;99.90
23556;DHT22;11956;53.184;8.578;2022-09-17T12:15:42;12.60;99.90
23556;DHT22;11956;53.184;8.578;2022-09-17T12:19:01;12.90;99.90
23556;DHT22;11956;53.184;8.578;2022-09-17T12:26:00;13.30;99.90
23556;DHT22;11956;53.184;8.578;2022-09-17T12:32:33;13.60;99.90
23556;DHT22;11956;53.184;8.578;2022-09-17T12:36:11;13.60;99.90
23556;DHT22;11956;53.184;8.578;2022-09-17T12:47:15;13.80;99.90
23556;DHT22;11956;53.184;8.578;2022-09-17T12:53:29;13.80;99.90
23556;DHT22;11956;53.184;8.578;2022-09-17T12:56:49;13.70;99.90
23556;DHT22;11956;53.184;8.578;2022-09-17T13:00:12;13.40;99.90
23556;DHT22;11956;53.184;8.578;2022-09-17T13:03:23;13.30;99.90
23556;DHT22;11956;53.184;8.578;2022-09-17T13:17:26;12.90;99.90
23556;DHT22;11956;53.184;8.578;2022-09-17T13:21:08;12.60;99.90
23556;DHT22;11956;53.184;8.578;2022-09-17T13:24:19;12.30;99.90
23556;DHT22;11956;53.184;8.578;2022-09-17T13:27:25;12.30;99.90
23556;DHT22;11956;53.184;8.578;2022-09-17T13:30:54;12.20;99.90
23556;DHT22;11956;53.184;8.578;2022-09-17T13:34:00;12.20;99.90
23556;DHT22;11956;53.184;8.578;2022-09-17T13:37:17;12.10;99.90
23556;DHT22;11956;53.184;8.578;2022-09-17T13:40:24;12.10;99.90
23556;DHT22;11956;53.184;8.578;2022-09-17T13:43:27;12.20;99.90
23556;DHT22;11956;53.184;8.578;2022-09-17T13:46:28;12.50;99.90
23556;DHT22;11956;53.184;8.578;2022-09-17T13:49:33;12.80;99.90
23556;DHT22;11956;53.184;8.578;2022-09-17T13:52:45;13.20;99.90
23556;DHT22;11956;53.184;8.578;2022-09-17T13:55:51;13.40;99.90
23556;DHT22;11956;53.184;8.578;2022-09-17T13:58:54;13.50;99.90
23556;DHT22;11956;53.184;8.578;2022-09-17T14:02:03;13.60;99.90
23556;DHT22;11956;53.184;8.578;2022-09-17T14:05:33;13.50;99.90
23556;DHT22;11956;53.184;8.578;2022-09-17T14:11:49;13.50;99.90
23556;DHT22;11956;53.184;8.578;2022-09-17T14:14:50;13.20;99.90
23556;DHT22;11956;53.184;8.578;2022-09-17T14:17:51;12.90;99.90
23556;DHT22;11956;53.184;8.578;2022-09-17T14:21:22;12.70;99.90
23556;DHT22;11956;53.184;8.578;2022-09-17T14:27:55;12.60;99.90
23556;DHT22;11956;53.184;8.578;2022-09-17T14:30:59;12.60;99.90
23556;DHT22;11956;53.184;8.578;2022-09-17T14:34:07;12.60;99.90
23556;DHT22;11956;53.184;8.578;2022-09-17T14:37:16;12.60;99.90
23556;DHT22;11956;53.184;8.578;2022-09-17T14:40:20;12.60;99.90
23556;DHT22;11956;53.184;8.578;2022-09-17T14:47:10;12.90;99.90
23556;DHT22;11956;53.184;8.578;2022-09-17T14:50:25;12.90;99.90
23556;DHT22;11956;53.184;8.578;2022-09-17T14:53:26;13.00;99.90
23556;DHT22;11956;53.184;8.578;2022-09-17T14:56:26;13.00;99.90
23556;DHT22;11956;53.184;8.578;2022-09-17T15:03:01;13.10;99.90
23556;DHT22;11956;53.184;8.578;2022-09-17T15:06:02;13.10;99.90
23556;DHT22;11956;53.184;8.578;2022-09-17T15:09:02;13.10;99.90
23556;DHT22;11956;53.184;8.578;2022-09-17T15:12:05;13.00;99.90
23556;DHT22;11956;53.184;8.578;2022-09-17T15:15:18;13.10;99.90
23556;DHT22;11956;53.184;8.578;2022-09-17T15:19:14;13.00;99.90
23556;DHT22;11956;53.184;8.578;2022-09-17T15:21:57;13.10;99.90
23556;DHT22;11956;53.184;8.578;2022-09-17T15:25:06;13.30;99.90
23556;DHT22;11956;53.184;8.578;2022-09-17T15:28:36;13.40;99.90
23556;DHT22;11956;53.184;8.578;2022-09-17T15:31:40;13.40;99.90
23556;DHT22;11956;53.184;8.578;2022-09-17T15:34:41;13.40;99.90
23556;DHT22;11956;53.184;8.578;2022-09-17T15:40:52;13.40;99.90
23556;DHT22;11956;53.184;8.578;2022-09-17T15:43:53;13.50;99.90
23556;DHT22;11956;53.184;8.578;2022-09-17T15:46:54;13.50;99.90
23556;DHT22;11956;53.184;8.578;2022-09-17T15:50:10;13.50;99.90
23556;DHT22;11956;53.184;8.578;2022-09-17T15:53:21;13.50;99.90
23556;DHT22;11956;53.184;8.578;2022-09-17T15:56:32;13.70;99.90
23556;DHT22;11956;53.184;8.578;2022-09-17T15:59:34;13.80;99.90
23556;DHT22;11956;53.184;8.578;2022-09-17T16:02:35;13.90;99.90
23556;DHT22;11956;53.184;8.578;2022-09-17T16:05:46;13.90;99.90
23556;DHT22;11956;53.184;8.578;2022-09-17T16:08:58;13.90;99.90
23556;DHT22;11956;53.184;8.578;2022-09-17T16:12:00;13.80;99.90
23556;DHT22;11956;53.184;8.578;2022-09-17T16:15:01;13.80;99.90
23556;DHT22;11956;53.184;8.578;2022-09-17T16:18:03;13.60;99.90
23556;DHT22;11956;53.184;8.578;2022-09-17T16:21:04;13.30;99.90
23556;DHT22;11956;53.184;8.578;2022-09-17T16:24:05;12.90;99.90
23556;DHT22;11956;53.184;8.578;2022-09-17T16:27:09;12.50;99.90
23556;DHT22;11956;53.184;8.578;2022-09-17T16:34:10;11.90;99.90
23556;DHT22;11956;53.184;8.578;2022-09-17T16:37:11;11.80;99.90
23556;DHT22;11956;53.184;8.578;2022-09-17T16:40:12;11.70;99.90
23556;DHT22;11956;53.184;8.578;2022-09-17T16:43:13;11.80;99.90
23556;DHT22;11956;53.184;8.578;2022-09-17T16:46:14;11.80;99.90
23556;DHT22;11956;53.184;8.578;2022-09-17T16:49:15;11.90;99.90
23556;DHT22;11956;53.184;8.578;2022-09-17T16:52:16;12.00;99.90
23556;DHT22;11956;53.184;8.578;2022-09-17T16:55:17;12.10;99.90
23556;DHT22;11956;53.184;8.578;2022-09-17T16:58:18;12.20;99.90
23556;DHT22;11956;53.184;8.578;2022-09-17T17:01:19;12.10;99.90
23556;DHT22;11956;53.184;8.578;2022-09-17T17:04:20;12.20;99.90
23556;DHT22;11956;53.184;8.578;2022-09-17T17:07:21;12.20;99.90
23556;DHT22;11956;53.184;8.578;2022-09-17T17:10:23;12.40;99.90
23556;DHT22;11956;53.184;8.578;2022-09-17T17:13:25;12.50;99.90
23556;DHT22;11956;53.184;8.578;2022-09-17T17:16:27;12.60;99.90
23556;DHT22;11956;53.184;8.578;2022-09-17T17:19:28;12.50;99.90
23556;DHT22;11956;53.184;8.578;2022-09-17T17:22:30;12.50;99.90
23556;DHT22;11956;53.184;8.578;2022-09-17T17:25:31;12.50;99.90
23556;DHT22;11956;53.184;8.578;2022-09-17T17:28:33;12.40;99.90
23556;DHT22;11956;53.184;8.578;2022-09-17T17:31:35;12.40;99.90
23556;DHT22;11956;53.184;8.578;2022-09-17T17:34:36;12.20;99.90
23556;DHT22;11956;53.184;8.578;2022-09-17T17:37:37;12.20;99.90
23556;DHT22;11956;53.184;8.578;2022-09-17T17:40:38;12.20;99.90
23556;DHT22;11956;53.184;8.578;2022-09-17T17:43:39;12.20;99.90
23556;DHT22;11956;53.184;8.578;2022-09-17T17:46:40;12.20;99.90
23556;DHT22;11956;53.184;8.578;2022-09-17T17:49:41;12.20;99.90
23556;DHT22;11956;53.184;8.578;2022-09-17T17:52:44;12.20;99.90
23556;DHT22;11956;53.184;8.578;2022-09-17T17:56:02;12.20;99.90
23556;DHT22;11956;53.184;8.578;2022-09-17T17:59:05;12.20;99.90
23556;DHT22;11956;53.184;8.578;2022-09-17T18:02:05;12.10;99.90
23556;DHT22;11956;53.184;8.578;2022-09-17T18:05:06;12.10;99.90
23556;DHT22;11956;53.184;8.578;2022-09-17T18:08:07;12.10;99.90
23556;DHT22;11956;53.184;8.578;2022-09-17T18:11:09;12.10;99.90
23556;DHT22;11956;53.184;8.578;2022-09-17T18:14:12;12.10;99.90
23556;DHT22;11956;53.184;8.578;2022-09-17T18:17:13;12.10;99.90
23556;DHT22;11956;53.184;8.578;2022-09-17T18:20:14;12.00;99.90
23556;DHT22;11956;53.184;8.578;2022-09-17T18:23:16;12.00;99.90
23556;DHT22;11956;53.184;8.578;2022-09-17T18:26:19;12.00;99.90
23556;DHT22;11956;53.184;8.578;2022-09-17T18:29:22;11.90;99.90
23556;DHT22;11956;53.184;8.578;2022-09-17T18:32:23;11.90;99.90
23556;DHT22;11956;53.184;8.578;2022-09-17T18:35:23;11.80;99.90
23556;DHT22;11956;53.184;8.578;2022-09-17T18:38:24;11.80;99.90
23556;DHT22;11956;53.184;8.578;2022-09-17T18:41:25;11.70;99.90
23556;DHT22;11956;53.184;8.578;2022-09-17T18:44:30;11.70;99.90
23556;DHT22;11956;53.184;8.578;2022-09-17T18:47:30;11.80;99.90
23556;DHT22;11956;53.184;8.578;2022-09-17T18:50:32;11.80;99.90
23556;DHT22;11956;53.184;8.578;2022-09-17T18:53:35;11.80;99.90
23556;DHT22;11956;53.184;8.578;2022-09-17T18:56:36;11.70;99.90
23556;DHT22;11956;53.184;8.578;2022-09-17T18:59:37;11.70;99.90
23556;DHT22;11956;53.184;8.578;2022-09-17T19:02:38;11.60;99.90
23556;DHT22;11956;53.184;8.578;2022-09-17T19:05:39;11.50;99.90
23556;DHT22;11956;53.184;8.578;2022-09-17T19:08:41;11.40;99.90
23556;DHT22;11956;53.184;8.578;2022-09-17T19:11:43;11.30;99.90
23556;DHT22;11956;53.184;8.578;2022-09-17T19:14:43;11.30;99.90
23556;DHT22;11956;53.184;8.578;2022-09-17T19:17:44;11.20;99.90
23556;DHT22;11956;53.184;8.578;2022-09-17T19:20:45;11.20;99.90
23556;DHT22;11956;53.184;8.578;2022-09-17T19:23:48;11.20;99.90
23556;DHT22;11956;53.184;8.578;2022-09-17T19:26:49;11.20;99.90
23556;DHT22;11956;53.184;8.578;2022-09-17T19:29:51;11.10;99.90
23556;DHT22;11956;53.184;8.578;2022-09-17T19:32:52;11.10;99.90
23556;DHT22;11956;53.184;8.578;2022-09-17T19:35:58;11.10;99.90
23556;DHT22;11956;53.184;8.578;2022-09-17T19:39:02;11.10;99.90
23556;DHT22;11956;53.184;8.578;2022-09-17T19:42:03;11.00;99.90
23556;DHT22;11956;53.184;8.578;2022-09-17T19:45:04;11.00;99.90
23556;DHT22;11956;53.184;8.578;2022-09-17T19:48:05;10.90;99.90
23556;DHT22;11956;53.184;8.578;2022-09-17T19:51:06;10.90;99.90
23556;DHT22;11956;53.184;8.578;2022-09-17T19:54:07;10.90;99.90
23556;DHT22;11956;53.184;8.578;2022-09-17T19:57:09;10.90;99.90
23556;DHT22;11956;53.184;8.578;2022-09-17T20:00:10;10.80;99.90
23556;DHT22;11956;53.184;8.578;2022-09-17T20:03:11;10.80;99.90
23556;DHT22;11956;53.184;8.578;2022-09-17T20:06:15;10.70;99.90
23556;DHT22;11956;53.184;8.578;2022-09-17T20:09:18;10.60;99.90
23556;DHT22;11956;53.184;8.578;2022-09-17T20:12:19;10.60;99.90
23556;DHT22;11956;53.184;8.578;2022-09-17T20:15:20;10.60;99.90
23556;DHT22;11956;53.184;8.578;2022-09-17T20:18:21;10.50;99.90
23556;DHT22;11956;53.184;8.578;2022-09-17T20:21:27;10.50;99.90
23556;DHT22;11956;53.184;8.578;2022-09-17T20:24:29;10.60;99.90
23556;DHT22;11956;53.184;8.578;2022-09-17T20:27:30;10.60;99.90
23556;DHT22;11956;53.184;8.578;2022-09-17T20:30:31;10.60;99.90
23556;DHT22;11956;53.184;8.578;2022-09-17T20:33:32;10.60;99.90
23556;DHT22;11956;53.184;8.578;2022-09-17T20:36:33;10.60;99.90
23556;DHT22;11956;53.184;8.578;2022-09-17T20:39:35;10.60;99.90
23556;DHT22;11956;53.184;8.578;2022-09-17T20:42:36;10.50;99.90
23556;DHT22;11956;53.184;8.578;2022-09-17T20:45:37;10.50;99.90
23556;DHT22;11956;53.184;8.578;2022-09-17T20:48:38;10.50;99.90
23556;DHT22;11956;53.184;8.578;2022-09-17T20:51:39;10.50;99.90
23556;DHT22;11956;53.184;8.578;2022-09-17T20:54:41;10.50;99.90
23556;DHT22;11956;53.184;8.578;2022-09-17T20:57:41;10.40;99.90
23556;DHT22;11956;53.184;8.578;2022-09-17T21:00:44;10.30;99.90
23556;DHT22;11956;53.184;8.578;2022-09-17T21:03:47;10.30;99.90
23556;DHT22;11956;53.184;8.578;2022-09-17T21:06:52;10.20;99.90
23556;DHT22;11956;53.184;8.578;2022-09-17T21:09:53;10.20;99.90
23556;DHT22;11956;53.184;8.578;2022-09-17T21:12:54;10.10;99.90
23556;DHT22;11956;53.184;8.578;2022-09-17T21:15:59;10.00;99.90
23556;DHT22;11956;53.184;8.578;2022-09-17T21:19:03;10.00;99.90
23556;DHT22;11956;53.184;8.578;2022-09-17T21:22:05;9.90;99.90
23556;DHT22;11956;53.184;8.578;2022-09-17T21:25:06;9.90;99.90
23556;DHT22;11956;53.184;8.578;2022-09-17T21:28:07;9.80;99.90
23556;DHT22;11956;53.184;8.578;2022-09-17T21:31:15;9.70;99.90
23556;DHT22;11956;53.184;8.578;2022-09-17T21:34:17;9.60;99.90
23556;DHT22;11956;53.184;8.578;2022-09-17T21:37:18;9.60;99.90
23556;DHT22;11956;53.184;8.578;2022-09-17T21:40:19;9.60;99.90
23556;DHT22;11956;53.184;8.578;2022-09-17T21:43:20;9.60;99.90
23556;DHT22;11956;53.184;8.578;2022-09-17T21:46:27;9.50;99.90
23556;DHT22;11956;53.184;8.578;2022-09-17T21:49:28;9.50;99.90
23556;DHT22;11956;53.184;8.578;2022-09-17T21:52:29;9.50;99.90
23556;DHT22;11956;53.184;8.578;2022-09-17T21:55:30;9.40;99.90
23556;DHT22;11956;53.184;8.578;2022-09-17T21:58:32;9.30;99.90
23556;DHT22;11956;53.184;8.578;2022-09-17T22:01:36;9.30;99.90
23556;DHT22;11956;53.184;8.578;2022-09-17T22:04:41;9.30;99.90
23556;DHT22;11956;53.184;8.578;2022-09-17T22:07:41;9.30;99.90